J.e. O'donnell — WDC2694 — position and weather

sailwx.info

Track history (hours):
 
Tides and Currents Weather Stations Pressure Air Temp Water Temp Dewpoint Dewpoint Depression Visibility Wind Speed Wind Dir Waves Ship Positions

J.e. O'donnell

Owner: Kirby Inland Marine LP, Houston, TX. More information available from US FCC via Universal Licensing System and Coast Guard Vessel Documentation Center.

Last reported at 2018-Feb-20 17:00 UTC. Time now 2018-Feb-20 17:18 UTC.
Position N 29°50' W 093°58'.

Length 22 m; draft 3 m.

Type: . MMSI: 366996490.

Date/timePositionNaut miles runAvg speedWind from/ knotsBaromVisibWave heightAir tempDewpointWater temp
2018-Feb-20 17:00N 29°50' W 093°58'0 0.0
2018-Feb-20 16:30N 29°50' W 093°58'0 0.0
2018-Feb-20 16:00N 29°50' W 093°58'1 2.0
2018-Feb-20 15:29N 29°49' W 093°58'0 0.0
2018-Feb-20 14:58N 29°49' W 093°58'0 0.3
2018-Feb-20 14:28N 29°49' W 093°58'0 0.0
2018-Feb-20 13:58N 29°49' W 093°58'0 0.0
2018-Feb-20 13:28N 29°49' W 093°58'0 0.0
2018-Feb-20 12:58N 29°49' W 093°58'0 0.0
2018-Feb-20 12:28N 29°49' W 093°58'0 0.0
2018-Feb-20 11:58N 29°49' W 093°58'0 0.0
2018-Feb-20 11:28N 29°49' W 093°58'0 0.0
2018-Feb-20 10:55N 29°49' W 093°58'0 0.0
2018-Feb-20 10:25N 29°49' W 093°58'0 0.0
2018-Feb-20 09:58N 29°49' W 093°58'0 0.0
2018-Feb-20 09:28N 29°49' W 093°58'0 0.0
2018-Feb-20 08:58N 29°49' W 093°58'0 0.0
2018-Feb-20 08:28N 29°49' W 093°58'1 1.4
2018-Feb-20 07:58N 29°49' W 093°59'1 3.0
2018-Feb-20 07:30N 29°48' W 094°00'2 4.1
2018-Feb-20 07:00N 29°47' W 094°02'2 4.3
2018-Feb-20 06:30N 29°45' W 094°04'2 4.3
2018-Feb-20 06:00N 29°44' W 094°06'2 4.3
2018-Feb-20 05:30N 29°43' W 094°08'2 4.2
2018-Feb-20 05:00N 29°41' W 094°10'2 3.4
2018-Feb-20 04:30N 29°41' W 094°12'2 3.9
2018-Feb-20 04:00N 29°40' W 094°14'2 3.9
2018-Feb-20 03:30N 29°39' W 094°16'2 3.7
2018-Feb-20 03:00N 29°38' W 094°17'2 3.6
2018-Feb-20 02:30N 29°38' W 094°19'2 3.7
2018-Feb-20 02:00N 29°37' W 094°21'17 2.0
2018-Feb-19 17:32N 29°28' W 094°38'0 0.0
2018-Feb-19 17:17N 29°28' W 094°38'0 0.1
2018-Feb-19 16:56N 29°28' W 094°38'0 0.6
2018-Feb-19 16:10N 29°28' W 094°38'1 3.5
2018-Feb-19 15:57N 29°28' W 094°39'1 1.0
2018-Feb-19 14:38N 29°27' W 094°41'0 3.2
2018-Feb-19 14:30N 29°27' W 094°41'1 1.0
2018-Feb-19 13:47N 29°27' W 094°42'0 0.0
2018-Feb-19 13:26N 29°27' W 094°42'0 0.0
2018-Feb-19 11:20N 29°27' W 094°42'0 0.1
2018-Feb-19 10:50N 29°27' W 094°42'0 0.0
2018-Feb-19 10:20N 29°27' W 094°42'0 0.1
2018-Feb-19 09:59N 29°27' W 094°42'0 0.0
2018-Feb-19 09:29N 29°27' W 094°42'0 0.0
2018-Feb-19 08:59N 29°27' W 094°42'0 0.0
2018-Feb-19 08:23N 29°27' W 094°42'0 0.0
2018-Feb-19 07:59N 29°27' W 094°42'0 0.1
2018-Feb-19 07:26N 29°27' W 094°42'0 0.0
2018-Feb-19 05:43N 29°27' W 094°42'0 0.0
2018-Feb-19 05:25N 29°27' W 094°42'0 0.0
2018-Feb-19 04:58N 29°27' W 094°42'7 0.2
2018-Feb-17 23:43N 29°23' W 094°48'1 3.4
2018-Feb-17 23:30N 29°23' W 094°49'3 4.2
2018-Feb-17 22:40N 29°26' W 094°50'7 5.2
2018-Feb-17 21:22N 29°32' W 094°54'2 5.3
2018-Feb-17 21:00N 29°34' W 094°55'3 5.3
2018-Feb-17 20:30N 29°36' W 094°57'3 5.6
2018-Feb-17 20:00N 29°39' W 094°58'3 6.1
2018-Feb-17 19:30N 29°42' W 094°59'7 0.5
2018-Feb-17 05:36N 29°45' W 095°06'0 0.0
2018-Feb-17 04:15N 29°45' W 095°06'1 0.1
2018-Feb-16 22:56N 29°44' W 095°06'  
Track history (hours):
 
Tides and Currents Weather Stations Pressure Air Temp Water Temp Dewpoint Dewpoint Depression Visibility Wind Speed Wind Dir Waves Ship Positions

J.e. O'donnell

Owner: Kirby Inland Marine LP, Houston, TX. More information available from US FCC via Universal Licensing System and Coast Guard Vessel Documentation Center.

Last reported at 2018-Feb-20 17:00 UTC. Time now 2018-Feb-20 17:18 UTC.
Position N 29°50' W 093°58'.

Length 22 m; draft 3 m.

Type: . MMSI: 366996490.

Date/timePositionNaut miles runAvg speedWind from/ knotsBaromVisibWave heightAir tempDewpointWater temp
2018-Feb-20 17:00N 29°50' W 093°58'0 0.0
2018-Feb-20 16:30N 29°50' W 093°58'0 0.0
2018-Feb-20 16:00N 29°50' W 093°58'1 2.0
2018-Feb-20 15:29N 29°49' W 093°58'0 0.0
2018-Feb-20 14:58N 29°49' W 093°58'0 0.3
2018-Feb-20 14:28N 29°49' W 093°58'0 0.0
2018-Feb-20 13:58N 29°49' W 093°58'0 0.0
2018-Feb-20 13:28N 29°49' W 093°58'0 0.0
2018-Feb-20 12:58N 29°49' W 093°58'0 0.0
2018-Feb-20 12:28N 29°49' W 093°58'0 0.0
2018-Feb-20 11:58N 29°49' W 093°58'0 0.0
2018-Feb-20 11:28N 29°49' W 093°58'0 0.0
2018-Feb-20 10:55N 29°49' W 093°58'0 0.0
2018-Feb-20 10:25N 29°49' W 093°58'0 0.0
2018-Feb-20 09:58N 29°49' W 093°58'0 0.0
2018-Feb-20 09:28N 29°49' W 093°58'0 0.0
2018-Feb-20 08:58N 29°49' W 093°58'0 0.0
2018-Feb-20 08:28N 29°49' W 093°58'1 1.4
2018-Feb-20 07:58N 29°49' W 093°59'1 3.0
2018-Feb-20 07:30N 29°48' W 094°00'2 4.1
2018-Feb-20 07:00N 29°47' W 094°02'2 4.3
2018-Feb-20 06:30N 29°45' W 094°04'2 4.3
2018-Feb-20 06:00N 29°44' W 094°06'2 4.3
2018-Feb-20 05:30N 29°43' W 094°08'2 4.2
2018-Feb-20 05:00N 29°41' W 094°10'2 3.4
2018-Feb-20 04:30N 29°41' W 094°12'2 3.9
2018-Feb-20 04:00N 29°40' W 094°14'2 3.9
2018-Feb-20 03:30N 29°39' W 094°16'2 3.7
2018-Feb-20 03:00N 29°38' W 094°17'2 3.6
2018-Feb-20 02:30N 29°38' W 094°19'2 3.7
2018-Feb-20 02:00N 29°37' W 094°21'17 2.0
2018-Feb-19 17:32N 29°28' W 094°38'0 0.0
2018-Feb-19 17:17N 29°28' W 094°38'0 0.1
2018-Feb-19 16:56N 29°28' W 094°38'0 0.6
2018-Feb-19 16:10N 29°28' W 094°38'1 3.5
2018-Feb-19 15:57N 29°28' W 094°39'1 1.0
2018-Feb-19 14:38N 29°27' W 094°41'0 3.2
2018-Feb-19 14:30N 29°27' W 094°41'1 1.0
2018-Feb-19 13:47N 29°27' W 094°42'0 0.0
2018-Feb-19 13:26N 29°27' W 094°42'0 0.0
2018-Feb-19 11:20N 29°27' W 094°42'0 0.1
2018-Feb-19 10:50N 29°27' W 094°42'0 0.0
2018-Feb-19 10:20N 29°27' W 094°42'0 0.1
2018-Feb-19 09:59N 29°27' W 094°42'0 0.0
2018-Feb-19 09:29N 29°27' W 094°42'0 0.0
2018-Feb-19 08:59N 29°27' W 094°42'0 0.0
2018-Feb-19 08:23N 29°27' W 094°42'0 0.0
2018-Feb-19 07:59N 29°27' W 094°42'0 0.1
2018-Feb-19 07:26N 29°27' W 094°42'0 0.0
2018-Feb-19 05:43N 29°27' W 094°42'0 0.0
2018-Feb-19 05:25N 29°27' W 094°42'0 0.0
2018-Feb-19 04:58N 29°27' W 094°42'7 0.2
2018-Feb-17 23:43N 29°23' W 094°48'1 3.4
2018-Feb-17 23:30N 29°23' W 094°49'3 4.2
2018-Feb-17 22:40N 29°26' W 094°50'7 5.2
2018-Feb-17 21:22N 29°32' W 094°54'2 5.3
2018-Feb-17 21:00N 29°34' W 094°55'3 5.3
2018-Feb-17 20:30N 29°36' W 094°57'3 5.6
2018-Feb-17 20:00N 29°39' W 094°58'3 6.1
2018-Feb-17 19:30N 29°42' W 094°59'7 0.5
2018-Feb-17 05:36N 29°45' W 095°06'0 0.0
2018-Feb-17 04:15N 29°45' W 095°06'1 0.1
2018-Feb-16 22:56N 29°44' W 095°06'  

Dump ship's entire track history